sensor_id;sensor_type;location;lat;lon;timestamp;temperature;humidity
31735;DHT22;18313;48.518;9.124;2024-03-23T00:55:54;8.60;99.90
31735;DHT22;18313;48.518;9.124;2024-03-23T00:58:22;8.50;99.90
31735;DHT22;18313;48.518;9.124;2024-03-23T01:00:50;8.60;99.90
31735;DHT22;18313;48.518;9.124;2024-03-23T01:03:16;8.50;99.90
31735;DHT22;18313;48.518;9.124;2024-03-23T01:05:42;8.50;99.90
31735;DHT22;18313;48.518;9.124;2024-03-23T01:08:08;8.50;99.90
31735;DHT22;18313;48.518;9.124;2024-03-23T01:10:34;8.50;99.90
31735;DHT22;18313;48.518;9.124;2024-03-23T01:13:01;8.50;99.90
31735;DHT22;18313;48.518;9.124;2024-03-23T01:15:27;8.50;99.90
31735;DHT22;18313;48.518;9.124;2024-03-23T01:17:53;8.40;99.90
31735;DHT22;18313;48.518;9.124;2024-03-23T01:20:20;8.50;99.90
31735;DHT22;18313;48.518;9.124;2024-03-23T01:22:46;8.50;99.90
31735;DHT22;18313;48.518;9.124;2024-03-23T01:25:12;8.70;99.90
31735;DHT22;18313;48.518;9.124;2024-03-23T01:27:38;8.90;99.90
31735;DHT22;18313;48.518;9.124;2024-03-23T01:30:05;9.20;99.90
31735;DHT22;18313;48.518;9.124;2024-03-23T01:32:31;9.40;99.90
31735;DHT22;18313;48.518;9.124;2024-03-23T01:34:57;9.50;99.90
31735;DHT22;18313;48.518;9.124;2024-03-23T01:37:24;9.50;99.90
31735;DHT22;18313;48.518;9.124;2024-03-23T01:39:50;9.50;99.90
31735;DHT22;18313;48.518;9.124;2024-03-23T01:42:17;9.50;99.90
31735;DHT22;18313;48.518;9.124;2024-03-23T01:44:43;9.50;99.90
31735;DHT22;18313;48.518;9.124;2024-03-23T01:47:09;9.50;99.90
31735;DHT22;18313;48.518;9.124;2024-03-23T01:49:35;9.40;99.90
31735;DHT22;18313;48.518;9.124;2024-03-23T01:52:02;9.50;99.90
31735;DHT22;18313;48.518;9.124;2024-03-23T01:54:29;9.60;99.90
31735;DHT22;18313;48.518;9.124;2024-03-23T01:56:56;9.70;99.90
31735;DHT22;18313;48.518;9.124;2024-03-23T01:59:22;9.80;99.90
31735;DHT22;18313;48.518;9.124;2024-03-23T02:01:49;9.60;99.90
31735;DHT22;18313;48.518;9.124;2024-03-23T02:04:15;9.70;99.90
31735;DHT22;18313;48.518;9.124;2024-03-23T02:06:41;9.70;99.90
31735;DHT22;18313;48.518;9.124;2024-03-23T02:09:08;9.80;99.90
31735;DHT22;18313;48.518;9.124;2024-03-23T02:11:34;9.80;99.90
31735;DHT22;18313;48.518;9.124;2024-03-23T02:14:00;9.90;99.90
31735;DHT22;18313;48.518;9.124;2024-03-23T02:16:26;10.00;99.90
31735;DHT22;18313;48.518;9.124;2024-03-23T02:18:52;10.00;99.90
31735;DHT22;18313;48.518;9.124;2024-03-23T02:21:18;10.10;99.90
31735;DHT22;18313;48.518;9.124;2024-03-23T02:23:44;10.30;99.90
31735;DHT22;18313;48.518;9.124;2024-03-23T02:26:10;10.40;99.90
31735;DHT22;18313;48.518;9.124;2024-03-23T02:28:36;10.60;99.90
31735;DHT22;18313;48.518;9.124;2024-03-23T02:31:03;10.70;99.90
31735;DHT22;18313;48.518;9.124;2024-03-23T02:33:30;10.80;99.90
31735;DHT22;18313;48.518;9.124;2024-03-23T02:35:58;10.70;99.90
31735;DHT22;18313;48.518;9.124;2024-03-23T02:38:24;10.60;99.90
31735;DHT22;18313;48.518;9.124;2024-03-23T02:40:50;10.60;99.90
31735;DHT22;18313;48.518;9.124;2024-03-23T02:43:16;10.50;99.90
31735;DHT22;18313;48.518;9.124;2024-03-23T02:45:42;10.50;99.90
31735;DHT22;18313;48.518;9.124;2024-03-23T02:48:08;10.40;99.90
31735;DHT22;18313;48.518;9.124;2024-03-23T02:50:34;10.50;99.90
31735;DHT22;18313;48.518;9.124;2024-03-23T02:53:00;10.30;99.90
31735;DHT22;18313;48.518;9.124;2024-03-23T02:55:26;10.20;99.90
31735;DHT22;18313;48.518;9.124;2024-03-23T02:57:52;10.20;99.90
31735;DHT22;18313;48.518;9.124;2024-03-23T03:00:18;10.20;99.90
31735;DHT22;18313;48.518;9.124;2024-03-23T03:02:45;10.10;99.90
31735;DHT22;18313;48.518;9.124;2024-03-23T03:05:11;10.10;99.90
31735;DHT22;18313;48.518;9.124;2024-03-23T03:07:38;10.00;99.90
31735;DHT22;18313;48.518;9.124;2024-03-23T03:10:06;10.00;99.90
31735;DHT22;18313;48.518;9.124;2024-03-23T03:12:34;9.90;99.90
31735;DHT22;18313;48.518;9.124;2024-03-23T03:15:00;9.90;99.90
31735;DHT22;18313;48.518;9.124;2024-03-23T03:17:26;9.80;99.90
31735;DHT22;18313;48.518;9.124;2024-03-23T03:19:52;9.80;99.90
31735;DHT22;18313;48.518;9.124;2024-03-23T03:22:22;9.80;99.90
31735;DHT22;18313;48.518;9.124;2024-03-23T03:24:48;9.90;99.90
31735;DHT22;18313;48.518;9.124;2024-03-23T03:27:14;9.80;99.90
31735;DHT22;18313;48.518;9.124;2024-03-23T03:29:42;9.90;99.90
31735;DHT22;18313;48.518;9.124;2024-03-23T03:32:08;9.80;99.90
31735;DHT22;18313;48.518;9.124;2024-03-23T03:34:34;9.90;99.90
31735;DHT22;18313;48.518;9.124;2024-03-23T03:37:00;9.90;99.90
31735;DHT22;18313;48.518;9.124;2024-03-23T03:39:28;9.90;99.90
31735;DHT22;18313;48.518;9.124;2024-03-23T03:41:54;9.90;99.90
31735;DHT22;18313;48.518;9.124;2024-03-23T03:44:20;10.00;99.90
31735;DHT22;18313;48.518;9.124;2024-03-23T03:46:46;10.10;99.90
31735;DHT22;18313;48.518;9.124;2024-03-23T03:49:12;10.30;99.90
31735;DHT22;18313;48.518;9.124;2024-03-23T03:51:38;10.40;99.90
31735;DHT22;18313;48.518;9.124;2024-03-23T03:54:04;10.70;99.90
31735;DHT22;18313;48.518;9.124;2024-03-23T03:56:30;10.90;99.90
31735;DHT22;18313;48.518;9.124;2024-03-23T03:58:56;11.10;99.90
31735;DHT22;18313;48.518;9.124;2024-03-23T04:01:22;11.20;99.90
31735;DHT22;18313;48.518;9.124;2024-03-23T04:03:48;11.40;99.90
31735;DHT22;18313;48.518;9.124;2024-03-23T04:06:18;11.50;99.90
31735;DHT22;18313;48.518;9.124;2024-03-23T04:08:44;11.60;99.90
31735;DHT22;18313;48.518;9.124;2024-03-23T04:11:10;11.60;99.90
31735;DHT22;18313;48.518;9.124;2024-03-23T04:13:36;11.50;99.90
31735;DHT22;18313;48.518;9.124;2024-03-23T04:16:02;11.50;99.90
31735;DHT22;18313;48.518;9.124;2024-03-23T04:18:28;11.40;99.90
31735;DHT22;18313;48.518;9.124;2024-03-23T04:20:54;11.40;99.90
31735;DHT22;18313;48.518;9.124;2024-03-23T04:23:21;11.40;99.90
31735;DHT22;18313;48.518;9.124;2024-03-23T04:25:47;11.30;99.90
31735;DHT22;18313;48.518;9.124;2024-03-23T04:28:13;11.30;99.90
31735;DHT22;18313;48.518;9.124;2024-03-23T04:30:39;11.30;99.90
31735;DHT22;18313;48.518;9.124;2024-03-23T04:33:05;11.30;99.90
31735;DHT22;18313;48.518;9.124;2024-03-23T04:35:31;11.40;99.90
31735;DHT22;18313;48.518;9.124;2024-03-23T04:37:57;11.30;99.90
31735;DHT22;18313;48.518;9.124;2024-03-23T04:40:25;11.30;99.90
31735;DHT22;18313;48.518;9.124;2024-03-23T04:42:51;11.30;99.90
31735;DHT22;18313;48.518;9.124;2024-03-23T04:45:17;11.40;99.90
31735;DHT22;18313;48.518;9.124;2024-03-23T04:47:43;11.50;99.90
31735;DHT22;18313;48.518;9.124;2024-03-23T04:50:09;11.60;99.90
31735;DHT22;18313;48.518;9.124;2024-03-23T04:52:38;11.60;99.90
31735;DHT22;18313;48.518;9.124;2024-03-23T04:55:04;11.70;99.90
31735;DHT22;18313;48.518;9.124;2024-03-23T04:57:30;11.60;99.90
31735;DHT22;18313;48.518;9.124;2024-03-23T04:59:57;11.60;99.90
31735;DHT22;18313;48.518;9.124;2024-03-23T05:02:23;11.60;99.90
31735;DHT22;18313;48.518;9.124;2024-03-23T05:04:51;11.60;99.90
31735;DHT22;18313;48.518;9.124;2024-03-23T05:07:17;11.70;99.90
31735;DHT22;18313;48.518;9.124;2024-03-23T05:09:43;11.70;99.90
31735;DHT22;18313;48.518;9.124;2024-03-23T05:12:09;11.70;99.90
31735;DHT22;18313;48.518;9.124;2024-03-23T05:14:35;11.70;99.90
31735;DHT22;18313;48.518;9.124;2024-03-23T05:17:01;11.80;99.90
31735;DHT22;18313;48.518;9.124;2024-03-23T05:19:28;11.70;99.90
31735;DHT22;18313;48.518;9.124;2024-03-23T05:21:54;11.60;99.90
31735;DHT22;18313;48.518;9.124;2024-03-23T05:24:20;11.40;99.90
31735;DHT22;18313;48.518;9.124;2024-03-23T05:26:46;11.20;99.90
31735;DHT22;18313;48.518;9.124;2024-03-23T05:29:12;11.10;99.90
31735;DHT22;18313;48.518;9.124;2024-03-23T05:31:39;11.00;99.90
31735;DHT22;18313;48.518;9.124;2024-03-23T05:34:08;10.90;99.90
31735;DHT22;18313;48.518;9.124;2024-03-23T05:36:34;10.90;99.90
31735;DHT22;18313;48.518;9.124;2024-03-23T05:39:02;10.80;99.90
31735;DHT22;18313;48.518;9.124;2024-03-23T05:41:28;10.80;99.90
31735;DHT22;18313;48.518;9.124;2024-03-23T05:43:54;10.70;99.90
31735;DHT22;18313;48.518;9.124;2024-03-23T05:46:20;10.60;99.90
31735;DHT22;18313;48.518;9.124;2024-03-23T05:48:46;10.50;99.90
31735;DHT22;18313;48.518;9.124;2024-03-23T05:51:12;10.30;99.90
31735;DHT22;18313;48.518;9.124;2024-03-23T05:53:38;10.20;99.90
31735;DHT22;18313;48.518;9.124;2024-03-23T05:56:05;10.10;99.90
31735;DHT22;18313;48.518;9.124;2024-03-23T05:58:32;10.10;99.90
31735;DHT22;18313;48.518;9.124;2024-03-23T06:00:58;10.00;99.90
31735;DHT22;18313;48.518;9.124;2024-03-23T06:03:26;10.10;99.90
31735;DHT22;18313;48.518;9.124;2024-03-23T06:05:52;10.00;99.90
31735;DHT22;18313;48.518;9.124;2024-03-23T06:08:21;10.00;99.90
31735;DHT22;18313;48.518;9.124;2024-03-23T06:10:47;9.90;99.90
31735;DHT22;18313;48.518;9.124;2024-03-23T06:13:13;10.00;99.90
31735;DHT22;18313;48.518;9.124;2024-03-23T06:15:40;10.00;99.90
31735;DHT22;18313;48.518;9.124;2024-03-23T06:18:06;9.90;99.90
31735;DHT22;18313;48.518;9.124;2024-03-23T06:20:33;10.00;99.90
31735;DHT22;18313;48.518;9.124;2024-03-23T06:23:03;10.00;99.90
31735;DHT22;18313;48.518;9.124;2024-03-23T06:25:29;10.00;99.90
31735;DHT22;18313;48.518;9.124;2024-03-23T06:27:56;9.80;99.90
31735;DHT22;18313;48.518;9.124;2024-03-23T06:30:22;9.70;99.90
31735;DHT22;18313;48.518;9.124;2024-03-23T06:32:48;9.70;99.90
31735;DHT22;18313;48.518;9.124;2024-03-23T06:35:14;9.70;99.90
31735;DHT22;18313;48.518;9.124;2024-03-23T06:37:40;9.50;99.90
31735;DHT22;18313;48.518;9.124;2024-03-23T06:40:07;9.40;99.90
31735;DHT22;18313;48.518;9.124;2024-03-23T06:42:35;9.20;99.90
31735;DHT22;18313;48.518;9.124;2024-03-23T06:45:02;9.30;99.90
31735;DHT22;18313;48.518;9.124;2024-03-23T06:47:30;9.20;99.90
31735;DHT22;18313;48.518;9.124;2024-03-23T06:49:57;9.10;99.90
31735;DHT22;18313;48.518;9.124;2024-03-23T06:52:23;9.20;99.90
31735;DHT22;18313;48.518;9.124;2024-03-23T06:54:49;9.10;99.90
31735;DHT22;18313;48.518;9.124;2024-03-23T06:57:15;9.10;99.90
31735;DHT22;18313;48.518;9.124;2024-03-23T06:59:42;9.00;99.90
31735;DHT22;18313;48.518;9.124;2024-03-23T07:02:09;9.00;99.90
31735;DHT22;18313;48.518;9.124;2024-03-23T07:04:35;9.10;99.90
31735;DHT22;18313;48.518;9.124;2024-03-23T07:07:02;9.10;99.90
31735;DHT22;18313;48.518;9.124;2024-03-23T07:09:28;9.10;99.90
31735;DHT22;18313;48.518;9.124;2024-03-23T07:11:56;9.20;99.90
31735;DHT22;18313;48.518;9.124;2024-03-23T07:14:22;9.20;99.90
31735;DHT22;18313;48.518;9.124;2024-03-23T07:16:49;9.10;99.90
31735;DHT22;18313;48.518;9.124;2024-03-23T07:19:15;9.00;99.90
31735;DHT22;18313;48.518;9.124;2024-03-23T07:21:43;9.00;99.90
31735;DHT22;18313;48.518;9.124;2024-03-23T07:24:09;8.90;99.90
31735;DHT22;18313;48.518;9.124;2024-03-23T07:26:36;9.00;99.90
31735;DHT22;18313;48.518;9.124;2024-03-23T07:29:04;9.00;99.90
31735;DHT22;18313;48.518;9.124;2024-03-23T07:31:30;9.00;99.90
31735;DHT22;18313;48.518;9.124;2024-03-23T07:33:56;9.10;99.90
31735;DHT22;18313;48.518;9.124;2024-03-23T07:36:22;9.20;99.90
31735;DHT22;18313;48.518;9.124;2024-03-23T07:38:48;9.20;99.90
31735;DHT22;18313;48.518;9.124;2024-03-23T07:41:15;9.30;99.90
31735;DHT22;18313;48.518;9.124;2024-03-23T07:43:44;9.30;99.90
31735;DHT22;18313;48.518;9.124;2024-03-23T07:46:11;9.30;99.90
31735;DHT22;18313;48.518;9.124;2024-03-23T07:48:38;9.20;99.90
31735;DHT22;18313;48.518;9.124;2024-03-23T07:51:06;9.20;99.90
31735;DHT22;18313;48.518;9.124;2024-03-23T07:53:33;9.30;99.90
31735;DHT22;18313;48.518;9.124;2024-03-23T07:58:26;9.30;99.90
31735;DHT22;18313;48.518;9.124;2024-03-23T08:00:53;9.40;99.90
31735;DHT22;18313;48.518;9.124;2024-03-23T08:03:19;9.50;99.90
31735;DHT22;18313;48.518;9.124;2024-03-23T08:05:45;9.50;99.90
31735;DHT22;18313;48.518;9.124;2024-03-23T08:08:11;9.50;99.90
31735;DHT22;18313;48.518;9.124;2024-03-23T08:10:50;9.50;99.90
31735;DHT22;18313;48.518;9.124;2024-03-23T08:13:16;9.40;99.90
31735;DHT22;18313;48.518;9.124;2024-03-23T08:15:43;9.30;99.90
31735;DHT22;18313;48.518;9.124;2024-03-23T08:18:10;9.20;99.90
31735;DHT22;18313;48.518;9.124;2024-03-23T08:20:36;9.20;99.90
31735;DHT22;18313;48.518;9.124;2024-03-23T08:23:03;9.10;99.90
31735;DHT22;18313;48.518;9.124;2024-03-23T08:25:32;9.10;99.90
31735;DHT22;18313;48.518;9.124;2024-03-23T08:27:58;9.10;99.90
31735;DHT22;18313;48.518;9.124;2024-03-23T08:30:25;9.10;99.90
31735;DHT22;18313;48.518;9.124;2024-03-23T08:32:51;9.10;99.90
31735;DHT22;18313;48.518;9.124;2024-03-23T08:35:17;9.10;99.90
31735;DHT22;18313;48.518;9.124;2024-03-23T08:37:44;9.00;99.90
31735;DHT22;18313;48.518;9.124;2024-03-23T08:40:10;8.90;99.90
31735;DHT22;18313;48.518;9.124;2024-03-23T08:42:36;8.80;99.90
31735;DHT22;18313;48.518;9.124;2024-03-23T08:45:05;8.80;99.90
31735;DHT22;18313;48.518;9.124;2024-03-23T08:47:36;8.70;99.90
31735;DHT22;18313;48.518;9.124;2024-03-23T08:50:02;8.80;99.90
31735;DHT22;18313;48.518;9.124;2024-03-23T08:52:29;8.90;99.90
31735;DHT22;18313;48.518;9.124;2024-03-23T08:54:55;8.90;99.90
31735;DHT22;18313;48.518;9.124;2024-03-23T08:57:24;8.80;99.90
31735;DHT22;18313;48.518;9.124;2024-03-23T08:59:51;8.70;99.90
31735;DHT22;18313;48.518;9.124;2024-03-23T09:02:17;8.70;99.90
31735;DHT22;18313;48.518;9.124;2024-03-23T09:04:44;8.80;99.90
31735;DHT22;18313;48.518;9.124;2024-03-23T09:07:10;8.80;99.90
31735;DHT22;18313;48.518;9.124;2024-03-23T09:09:39;8.90;99.90
31735;DHT22;18313;48.518;9.124;2024-03-23T09:12:05;8.90;99.90
31735;DHT22;18313;48.518;9.124;2024-03-23T09:14:35;9.00;99.90
31735;DHT22;18313;48.518;9.124;2024-03-23T09:17:02;8.90;99.90
31735;DHT22;18313;48.518;9.124;2024-03-23T09:19:28;8.80;99.90
31735;DHT22;18313;48.518;9.124;2024-03-23T09:21:55;8.80;99.90
31735;DHT22;18313;48.518;9.124;2024-03-23T09:24:21;8.80;99.90
31735;DHT22;18313;48.518;9.124;2024-03-23T09:26:47;8.80;99.90
31735;DHT22;18313;48.518;9.124;2024-03-23T09:29:13;8.90;99.90
31735;DHT22;18313;48.518;9.124;2024-03-23T09:31:40;9.00;99.90
31735;DHT22;18313;48.518;9.124;2024-03-23T09:34:06;9.00;99.90
31735;DHT22;18313;48.518;9.124;2024-03-23T09:36:33;8.90;99.90
31735;DHT22;18313;48.518;9.124;2024-03-23T09:38:59;9.00;99.90
31735;DHT22;18313;48.518;9.124;2024-03-23T09:41:25;9.10;99.90
31735;DHT22;18313;48.518;9.124;2024-03-23T09:43:52;9.10;99.90
31735;DHT22;18313;48.518;9.124;2024-03-23T09:46:19;9.20;99.90
31735;DHT22;18313;48.518;9.124;2024-03-23T09:48:46;9.60;99.90
31735;DHT22;18313;48.518;9.124;2024-03-23T09:51:12;9.90;99.90
31735;DHT22;18313;48.518;9.124;2024-03-23T09:53:38;10.10;99.90
31735;DHT22;18313;48.518;9.124;2024-03-23T09:56:05;10.30;99.90
31735;DHT22;18313;48.518;9.124;2024-03-23T09:58:31;10.40;99.90
31735;DHT22;18313;48.518;9.124;2024-03-23T10:01:00;10.60;99.90
31735;DHT22;18313;48.518;9.124;2024-03-23T10:03:27;10.90;99.90
31735;DHT22;18313;48.518;9.124;2024-03-23T10:06:03;11.10;99.90
31735;DHT22;18313;48.518;9.124;2024-03-23T10:08:30;11.30;99.90
31735;DHT22;18313;48.518;9.124;2024-03-23T10:10:59;11.00;99.90
31735;DHT22;18313;48.518;9.124;2024-03-23T10:13:38;10.60;99.90
31735;DHT22;18313;48.518;9.124;2024-03-23T10:16:07;10.30;99.90
31735;DHT22;18313;48.518;9.124;2024-03-23T10:18:36;10.20;99.90
31735;DHT22;18313;48.518;9.124;2024-03-23T10:23:33;10.30;99.90
31735;DHT22;18313;48.518;9.124;2024-03-23T10:29:13;10.80;99.90
31735;DHT22;18313;48.518;9.124;2024-03-23T10:31:37;11.20;99.90
31735;DHT22;18313;48.518;9.124;2024-03-23T10:34:07;11.40;99.90
31735;DHT22;18313;48.518;9.124;2024-03-23T10:36:34;11.40;99.90
31735;DHT22;18313;48.518;9.124;2024-03-23T10:39:03;11.50;99.90
31735;DHT22;18313;48.518;9.124;2024-03-23T10:41:31;11.40;99.90
31735;DHT22;18313;48.518;9.124;2024-03-23T10:43:58;11.70;99.90
31735;DHT22;18313;48.518;9.124;2024-03-23T10:46:28;11.80;99.90
31735;DHT22;18313;48.518;9.124;2024-03-23T10:48:54;11.80;99.40
31735;DHT22;18313;48.518;9.124;2024-03-23T10:51:20;11.40;99.30
31735;DHT22;18313;48.518;9.124;2024-03-23T10:53:46;11.00;99.30
31735;DHT22;18313;48.518;9.124;2024-03-23T10:56:13;10.60;99.20
31735;DHT22;18313;48.518;9.124;2024-03-23T10:58:41;10.30;99.50
31735;DHT22;18313;48.518;9.124;2024-03-23T11:01:10;10.10;99.90
31735;DHT22;18313;48.518;9.124;2024-03-23T11:03:37;9.10;99.90
31735;DHT22;18313;48.518;9.124;2024-03-23T11:06:03;8.00;99.90
31735;DHT22;18313;48.518;9.124;2024-03-23T11:08:30;7.40;99.90
31735;DHT22;18313;48.518;9.124;2024-03-23T11:13:38;7.20;99.90
31735;DHT22;18313;48.518;9.124;2024-03-23T11:16:22;7.30;99.90
31735;DHT22;18313;48.518;9.124;2024-03-23T11:18:49;7.60;99.90
31735;DHT22;18313;48.518;9.124;2024-03-23T11:24:18;8.20;99.90
31735;DHT22;18313;48.518;9.124;2024-03-23T11:26:45;8.40;99.90
31735;DHT22;18313;48.518;9.124;2024-03-23T11:29:12;8.40;99.90
31735;DHT22;18313;48.518;9.124;2024-03-23T11:31:38;8.40;99.90
31735;DHT22;18313;48.518;9.124;2024-03-23T11:34:06;8.40;99.90
31735;DHT22;18313;48.518;9.124;2024-03-23T11:36:32;8.40;99.90
31735;DHT22;18313;48.518;9.124;2024-03-23T11:38:58;8.60;99.90
31735;DHT22;18313;48.518;9.124;2024-03-23T11:41:25;8.60;99.90
31735;DHT22;18313;48.518;9.124;2024-03-23T11:43:51;8.50;99.90
31735;DHT22;18313;48.518;9.124;2024-03-23T11:46:23;8.50;99.90
31735;DHT22;18313;48.518;9.124;2024-03-23T11:48:50;8.40;99.90
31735;DHT22;18313;48.518;9.124;2024-03-23T11:51:17;8.30;99.90
31735;DHT22;18313;48.518;9.124;2024-03-23T11:53:43;8.30;99.90
31735;DHT22;18313;48.518;9.124;2024-03-23T11:56:13;8.30;99.90
31735;DHT22;18313;48.518;9.124;2024-03-23T11:58:39;8.30;99.90
31735;DHT22;18313;48.518;9.124;2024-03-23T12:01:09;8.30;99.90
31735;DHT22;18313;48.518;9.124;2024-03-23T12:03:36;8.30;99.90
31735;DHT22;18313;48.518;9.124;2024-03-23T12:06:03;8.20;99.90
31735;DHT22;18313;48.518;9.124;2024-03-23T12:08:30;8.00;99.90
31735;DHT22;18313;48.518;9.124;2024-03-23T12:11:10;7.80;99.90
31735;DHT22;18313;48.518;9.124;2024-03-23T12:13:37;7.80;99.90
31735;DHT22;18313;48.518;9.124;2024-03-23T12:16:14;7.70;99.90
31735;DHT22;18313;48.518;9.124;2024-03-23T12:18:41;7.70;99.90
31735;DHT22;18313;48.518;9.124;2024-03-23T12:21:08;7.70;99.90
31735;DHT22;18313;48.518;9.124;2024-03-23T12:23:38;7.70;99.90
31735;DHT22;18313;48.518;9.124;2024-03-23T12:26:05;7.70;99.90
31735;DHT22;18313;48.518;9.124;2024-03-23T12:28:31;7.70;99.90
31735;DHT22;18313;48.518;9.124;2024-03-23T12:30:57;7.50;99.90
31735;DHT22;18313;48.518;9.124;2024-03-23T12:33:23;7.40;99.90
31735;DHT22;18313;48.518;9.124;2024-03-23T12:35:50;7.40;99.90
31735;DHT22;18313;48.518;9.124;2024-03-23T12:38:16;7.30;99.90
31735;DHT22;18313;48.518;9.124;2024-03-23T12:40:46;7.40;99.90
31735;DHT22;18313;48.518;9.124;2024-03-23T12:43:13;7.40;99.90
31735;DHT22;18313;48.518;9.124;2024-03-23T12:45:41;7.60;99.90
31735;DHT22;18313;48.518;9.124;2024-03-23T12:48:07;7.80;99.90
31735;DHT22;18313;48.518;9.124;2024-03-23T12:50:33;8.10;99.90
31735;DHT22;18313;48.518;9.124;2024-03-23T12:52:59;8.40;99.90
31735;DHT22;18313;48.518;9.124;2024-03-23T12:55:26;8.40;99.90
31735;DHT22;18313;48.518;9.124;2024-03-23T12:57:52;8.60;99.90
31735;DHT22;18313;48.518;9.124;2024-03-23T13:00:19;8.60;99.90
31735;DHT22;18313;48.518;9.124;2024-03-23T13:02:45;8.30;99.90
31735;DHT22;18313;48.518;9.124;2024-03-23T13:05:12;8.20;99.90
31735;DHT22;18313;48.518;9.124;2024-03-23T13:07:38;8.20;99.90
31735;DHT22;18313;48.518;9.124;2024-03-23T13:10:04;8.10;99.90
31735;DHT22;18313;48.518;9.124;2024-03-23T13:12:31;8.30;99.90
31735;DHT22;18313;48.518;9.124;2024-03-23T13:15:01;8.50;99.90
31735;DHT22;18313;48.518;9.124;2024-03-23T13:17:27;8.70;99.90
31735;DHT22;18313;48.518;9.124;2024-03-23T13:19:54;8.90;99.90
31735;DHT22;18313;48.518;9.124;2024-03-23T13:22:21;9.30;99.90
31735;DHT22;18313;48.518;9.124;2024-03-23T13:24:47;9.60;99.90
31735;DHT22;18313;48.518;9.124;2024-03-23T13:27:14;9.80;99.90
31735;DHT22;18313;48.518;9.124;2024-03-23T13:29:40;9.90;99.90
31735;DHT22;18313;48.518;9.124;2024-03-23T13:32:06;9.90;99.90
31735;DHT22;18313;48.518;9.124;2024-03-23T13:34:32;9.90;99.90
31735;DHT22;18313;48.518;9.124;2024-03-23T13:37:00;10.20;99.90
31735;DHT22;18313;48.518;9.124;2024-03-23T13:39:27;10.20;99.90
31735;DHT22;18313;48.518;9.124;2024-03-23T13:41:56;10.40;99.90
31735;DHT22;18313;48.518;9.124;2024-03-23T13:44:23;10.50;99.90
31735;DHT22;18313;48.518;9.124;2024-03-23T13:46:49;10.40;99.90
31735;DHT22;18313;48.518;9.124;2024-03-23T13:51:50;10.00;99.90
31735;DHT22;18313;48.518;9.124;2024-03-23T13:54:16;9.80;99.90
31735;DHT22;18313;48.518;9.124;2024-03-23T13:56:42;9.90;99.90
31735;DHT22;18313;48.518;9.124;2024-03-23T13:59:09;10.00;99.90
31735;DHT22;18313;48.518;9.124;2024-03-23T14:01:35;10.00;99.90
31735;DHT22;18313;48.518;9.124;2024-03-23T14:04:01;9.80;99.90
31735;DHT22;18313;48.518;9.124;2024-03-23T14:06:28;9.60;99.90
31735;DHT22;18313;48.518;9.124;2024-03-23T14:08:54;9.50;99.90
31735;DHT22;18313;48.518;9.124;2024-03-23T14:11:20;9.20;99.90
31735;DHT22;18313;48.518;9.124;2024-03-23T14:13:46;8.60;99.90
31735;DHT22;18313;48.518;9.124;2024-03-23T14:16:13;8.40;99.90
31735;DHT22;18313;48.518;9.124;2024-03-23T14:18:39;8.20;99.90
31735;DHT22;18313;48.518;9.124;2024-03-23T14:21:05;8.20;99.90
31735;DHT22;18313;48.518;9.124;2024-03-23T14:23:33;8.10;99.90
31735;DHT22;18313;48.518;9.124;2024-03-23T14:25:59;8.30;99.90
31735;DHT22;18313;48.518;9.124;2024-03-23T14:28:25;8.50;99.90
31735;DHT22;18313;48.518;9.124;2024-03-23T14:30:51;8.70;99.90
31735;DHT22;18313;48.518;9.124;2024-03-23T14:33:18;9.00;99.90
31735;DHT22;18313;48.518;9.124;2024-03-23T14:35:53;9.30;99.90
31735;DHT22;18313;48.518;9.124;2024-03-23T14:38:21;9.50;99.90
31735;DHT22;18313;48.518;9.124;2024-03-23T14:40:47;9.60;99.90
31735;DHT22;18313;48.518;9.124;2024-03-23T14:43:13;9.70;99.90
31735;DHT22;18313;48.518;9.124;2024-03-23T14:48:25;9.80;99.90
31735;DHT22;18313;48.518;9.124;2024-03-23T14:50:56;9.70;99.90
31735;DHT22;18313;48.518;9.124;2024-03-23T14:53:22;9.50;99.90
31735;DHT22;18313;48.518;9.124;2024-03-23T14:55:48;9.30;99.90
31735;DHT22;18313;48.518;9.124;2024-03-23T14:58:15;9.00;99.90
31735;DHT22;18313;48.518;9.124;2024-03-23T15:00:41;8.70;99.90
31735;DHT22;18313;48.518;9.124;2024-03-23T15:03:07;8.30;99.90
31735;DHT22;18313;48.518;9.124;2024-03-23T15:05:33;7.60;99.90
31735;DHT22;18313;48.518;9.124;2024-03-23T15:08:00;7.10;99.90
31735;DHT22;18313;48.518;9.124;2024-03-23T15:10:28;6.80;99.90
31735;DHT22;18313;48.518;9.124;2024-03-23T15:12:54;6.80;99.90
31735;DHT22;18313;48.518;9.124;2024-03-23T15:15:21;7.00;99.90
31735;DHT22;18313;48.518;9.124;2024-03-23T15:17:47;7.10;99.90
31735;DHT22;18313;48.518;9.124;2024-03-23T15:20:13;7.30;99.90
31735;DHT22;18313;48.518;9.124;2024-03-23T15:22:39;7.40;99.90
31735;DHT22;18313;48.518;9.124;2024-03-23T15:25:06;7.30;99.90
31735;DHT22;18313;48.518;9.124;2024-03-23T15:27:32;7.20;99.90
31735;DHT22;18313;48.518;9.124;2024-03-23T15:29:58;7.00;99.90
31735;DHT22;18313;48.518;9.124;2024-03-23T15:32:24;7.00;99.90
31735;DHT22;18313;48.518;9.124;2024-03-23T15:34:50;7.10;99.90
31735;DHT22;18313;48.518;9.124;2024-03-23T15:37:17;7.10;99.90
31735;DHT22;18313;48.518;9.124;2024-03-23T15:39:44;7.20;99.90
31735;DHT22;18313;48.518;9.124;2024-03-23T15:42:10;7.30;99.90
31735;DHT22;18313;48.518;9.124;2024-03-23T15:44:36;7.40;99.90
31735;DHT22;18313;48.518;9.124;2024-03-23T15:47:02;7.50;99.90
31735;DHT22;18313;48.518;9.124;2024-03-23T15:49:28;7.50;99.90
31735;DHT22;18313;48.518;9.124;2024-03-23T15:51:55;7.50;99.90
31735;DHT22;18313;48.518;9.124;2024-03-23T15:54:23;7.50;99.90
31735;DHT22;18313;48.518;9.124;2024-03-23T15:56:49;7.50;99.90
31735;DHT22;18313;48.518;9.124;2024-03-23T15:59:15;7.60;99.90
31735;DHT22;18313;48.518;9.124;2024-03-23T16:01:42;7.80;99.90
31735;DHT22;18313;48.518;9.124;2024-03-23T16:04:09;7.90;99.90
31735;DHT22;18313;48.518;9.124;2024-03-23T16:06:36;8.00;99.90
31735;DHT22;18313;48.518;9.124;2024-03-23T16:09:02;7.90;99.90
31735;DHT22;18313;48.518;9.124;2024-03-23T16:11:28;7.90;99.90
31735;DHT22;18313;48.518;9.124;2024-03-23T16:13:55;7.90;99.90
31735;DHT22;18313;48.518;9.124;2024-03-23T16:16:22;7.80;99.90
31735;DHT22;18313;48.518;9.124;2024-03-23T16:18:49;7.80;99.90
31735;DHT22;18313;48.518;9.124;2024-03-23T16:21:15;7.80;99.90
31735;DHT22;18313;48.518;9.124;2024-03-23T16:23:43;7.80;99.90
31735;DHT22;18313;48.518;9.124;2024-03-23T16:26:12;7.80;99.90
31735;DHT22;18313;48.518;9.124;2024-03-23T16:28:38;7.70;99.90
31735;DHT22;18313;48.518;9.124;2024-03-23T16:31:07;7.60;99.90
31735;DHT22;18313;48.518;9.124;2024-03-23T16:33:34;7.60;99.90
31735;DHT22;18313;48.518;9.124;2024-03-23T16:36:01;7.60;99.90
31735;DHT22;18313;48.518;9.124;2024-03-23T16:38:29;7.60;99.90
31735;DHT22;18313;48.518;9.124;2024-03-23T16:41:01;7.60;99.90
31735;DHT22;18313;48.518;9.124;2024-03-23T16:43:28;7.60;99.90
31735;DHT22;18313;48.518;9.124;2024-03-23T16:45:58;7.60;99.90
31735;DHT22;18313;48.518;9.124;2024-03-23T16:48:25;7.70;99.90
31735;DHT22;18313;48.518;9.124;2024-03-23T16:50:51;7.60;99.90
31735;DHT22;18313;48.518;9.124;2024-03-23T16:53:18;7.40;99.90